Time;durP1;ratioP1;P1;durP2;ratioP2;P2;SDS_P1;SDS_P2;PMS_P1;PMS_P2;Temp;Humidity;BMP_temperature;BMP_pressure;BME280_temperature;BME280_humidity;BME280_pressure;Samples;Min_cycle;Max_cycle;Signal;HPM_P1;HPM_P2
2021/11/01 00:00:29;;;;;;;33.60;23.42;;;;;;;4.99;68.11;101254.91;1822893;77;21974;-69
2021/11/01 00:02:56;;;;;;;34.60;23.50;;;;;;;4.96;68.14;101257.15;1821995;78;21000;-69
2021/11/01 00:05:25;;;;;;;31.52;22.50;;;;;;;4.95;68.11;101251.04;1823552;77;21030;-69
2021/11/01 00:07:53;;;;;;;32.03;23.00;;;;;;;4.92;68.14;101242.18;1843641;76;21548;-69
2021/11/01 00:10:20;;;;;;;33.67;24.23;;;;;;;4.91;68.17;101242.69;1825971;77;21082;-69
2021/11/01 00:12:47;;;;;;;35.43;24.12;;;;;;;4.89;68.16;101238.61;1827476;77;21157;-68
2021/11/01 00:15:14;;;;;;;31.93;23.18;;;;;;;4.86;68.14;101241.15;1825207;77;21624;-67
2021/11/01 00:17:41;;;;;;;31.82;22.52;;;;;;;4.85;68.12;101237.39;1824965;77;21450;-68
2021/11/01 00:20:10;;;;;;;28.67;21.52;;;;;;;4.82;68.13;101232.50;1855326;77;21016;-68
2021/11/01 00:22:38;;;;;;;32.85;22.90;;;;;;;4.81;68.14;101233.53;1801853;79;20995;-68
2021/11/01 00:25:07;;;;;;;31.52;22.45;;;;;;;4.81;68.16;101230.37;1834575;76;21188;-68
2021/11/01 00:27:33;;;;;;;31.60;22.02;;;;;;;4.81;68.23;101229.55;1833253;78;21062;-68
2021/11/01 00:30:04;;;;;;;32.10;22.15;;;;;;;4.79;68.30;101224.45;1850905;75;21430;-68
2021/11/01 00:32:31;;;;;;;33.98;23.52;;;;;;;4.78;68.33;101222.83;1855704;77;21081;-69
2021/11/01 00:34:59;;;;;;;33.42;24.37;;;;;;;4.78;68.34;101218.86;1839037;75;21065;-68
2021/11/01 00:37:27;;;;;;;32.35;23.25;;;;;;;4.79;68.37;101221.80;1824042;78;21871;-68
2021/11/01 00:39:57;;;;;;;32.85;23.80;;;;;;;4.79;68.46;101221.80;1804067;77;21481;-69
2021/11/01 00:42:24;;;;;;;32.58;23.57;;;;;;;4.80;68.53;101218.64;1823529;77;21033;-68
2021/11/01 00:44:52;;;;;;;33.33;23.52;;;;;;;4.80;68.54;101219.97;1816875;77;21555;-69
2021/11/01 00:47:18;;;;;;;33.85;23.60;;;;;;;4.80;68.59;101219.97;1822983;77;20971;-69
2021/11/01 00:49:45;;;;;;;35.80;24.12;;;;;;;4.81;68.62;101220.30;1822999;77;21124;-69
2021/11/01 00:52:12;;;;;;;34.80;24.52;;;;;;;4.80;68.68;101218.64;1823069;78;21510;-69
2021/11/01 00:54:41;;;;;;;36.42;24.55;;;;;;;4.80;68.75;101213.35;1798666;77;21164;-69
2021/11/01 00:57:07;;;;;;;39.58;26.60;;;;;;;4.81;68.73;101211.03;1824477;77;20935;-69
2021/11/01 00:59:34;;;;;;;37.03;24.70;;;;;;;4.80;68.76;101207.55;1822950;78;21042;-69
2021/11/01 01:02:01;;;;;;;34.35;23.77;;;;;;;4.79;68.79;101205.11;1824061;77;21152;-69
2021/11/01 01:04:27;;;;;;;38.78;26.12;;;;;;;4.80;68.83;101206.22;1823553;77;21034;-69
2021/11/01 01:06:54;;;;;;;37.00;25.27;;;;;;;4.80;68.87;101202.77;1814317;77;21006;-69
2021/11/01 01:09:21;;;;;;;35.48;24.75;;;;;;;4.82;68.88;101206.84;1824881;77;20956;-69
2021/11/01 01:11:48;;;;;;;36.38;25.57;;;;;;;4.80;68.85;101199.60;1824526;77;20996;-69
2021/11/01 01:14:16;;;;;;;37.20;25.72;;;;;;;4.79;68.87;101200.63;1824515;77;21138;-69
2021/11/01 01:16:44;;;;;;;39.45;26.15;;;;;;;4.81;68.83;101198.61;1821656;77;20991;-68
2021/11/01 01:19:22;;;;;;;40.60;27.52;;;;;;;4.80;68.86;101201.44;1824150;77;21037;-68
2021/11/01 01:24:31;;;;;;;38.45;26.30;;;;;;;4.77;69.04;101197.39;1825251;77;20921;-68
2021/11/01 01:26:58;;;;;;;45.03;29.60;;;;;;;4.77;69.17;101197.39;1822770;78;21179;-68
2021/11/01 01:29:25;;;;;;;39.55;27.50;;;;;;;4.78;69.24;101196.36;1824523;77;21596;-68
2021/11/01 01:31:52;;;;;;;40.70;27.22;;;;;;;4.78;69.31;101191.07;1823978;78;20995;-68
2021/11/01 01:34:19;;;;;;;39.63;27.73;;;;;;;4.77;69.33;101189.45;1823576;77;21544;-69
2021/11/01 01:36:46;;;;;;;36.33;25.85;;;;;;;4.76;69.34;101185.16;1816376;78;21157;-69
2021/11/01 01:39:12;;;;;;;38.20;26.10;;;;;;;4.77;69.32;101183.32;1824722;78;21103;-68
2021/11/01 01:41:45;;;;;;;36.30;26.15;;;;;;;4.77;69.35;101186.80;1822546;77;20967;-68
2021/11/01 01:44:14;;;;;;;39.35;27.35;;;;;;;4.75;69.38;101178.75;1823518;77;20979;-68
2021/11/01 01:46:40;;;;;;;37.38;26.30;;;;;;;4.75;69.36;101179.56;1823163;77;21692;-68
2021/11/01 01:49:07;;;;;;;35.30;25.30;;;;;;;4.77;69.28;101179.34;1815509;77;20983;-69
2021/11/01 01:51:34;;;;;;;34.73;25.27;;;;;;;4.74;69.16;101175.30;1827209;77;21203;-68
2021/11/01 01:54:01;;;;;;;37.13;25.15;;;;;;;4.71;69.08;101166.44;1834719;75;21498;-68
2021/11/01 01:56:27;;;;;;;38.88;26.17;;;;;;;4.70;69.02;101174.89;1808627;79;21553;-68
2021/11/01 01:59:03;;;;;;;30.90;23.20;;;;;;;4.68;68.96;101174.78;1823355;77;21093;-68
2021/11/01 02:01:31;;;;;;;33.73;23.65;;;;;;;4.66;68.93;101176.30;1824871;77;21009;-69
2021/11/01 02:03:58;;;;;;;32.60;23.15;;;;;;;4.64;68.94;101179.67;1824157;77;21130;-68
2021/11/01 02:06:39;;;;;;;31.23;23.47;;;;;;;4.61;68.91;101176.61;1823553;77;21015;-68
2021/11/01 02:09:22;;;;;;;35.23;24.32;;;;;;;4.59;68.81;101168.86;1825029;77;20999;-70
2021/11/01 02:12:08;;;;;;;32.10;22.65;;;;;;;4.57;68.67;101174.85;1814353;77;20952;-69
2021/11/01 02:14:53;;;;;;;31.05;22.58;;;;;;;4.55;68.63;101172.13;1810126;77;21015;-68
2021/11/01 02:17:27;;;;;;;30.27;21.75;;;;;;;4.51;68.57;101168.23;1826006;77;21287;-68
2021/11/01 02:19:58;;;;;;;32.98;24.07;;;;;;;4.46;68.59;101163.05;1819898;77;20999;-69
2021/11/01 02:22:41;;;;;;;33.30;22.42;;;;;;;4.44;68.53;101162.45;1844544;77;21025;-69
2021/11/01 02:25:11;;;;;;;30.60;22.40;;;;;;;4.41;68.53;101158.88;1739341;77;21026;-68
2021/11/01 02:27:40;;;;;;;36.03;23.73;;;;;;;4.40;68.45;101161.20;1822709;77;20995;-68
2021/11/01 02:30:10;;;;;;;33.02;23.38;;;;;;;4.36;68.45;101154.69;1820790;77;21815;-68
2021/11/01 02:32:39;;;;;;;36.25;24.87;;;;;;;4.34;68.46;101150.09;1847663;77;20999;-68
2021/11/01 02:35:08;;;;;;;32.60;23.87;;;;;;;4.34;68.50;101154.06;1822981;77;21428;-68
2021/11/01 02:37:39;;;;;;;33.45;23.57;;;;;;;4.32;68.51;101151.34;1823963;78;21535;-68
2021/11/01 02:40:08;;;;;;;35.35;24.47;;;;;;;4.29;68.58;101145.94;1821920;77;20991;-68
2021/11/01 02:42:36;;;;;;;33.65;23.62;;;;;;;4.31;68.53;101145.23;1857878;77;21798;-68
2021/11/01 02:45:09;;;;;;;33.92;23.70;;;;;;;4.31;68.55;101147.88;1833767;75;21054;-68
2021/11/01 02:47:36;;;;;;;36.65;24.98;;;;;;;4.28;68.50;101146.96;1820056;77;21017;-68
2021/11/01 02:50:08;;;;;;;34.88;23.92;;;;;;;4.24;68.43;101143.06;1855797;75;20983;-68
2021/11/01 02:52:35;;;;;;;34.60;24.20;;;;;;;4.21;68.44;101144.78;1843679;75;21014;-69
2021/11/01 02:55:04;;;;;;;35.05;24.50;;;;;;;4.18;68.32;101143.89;1856181;77;21103;-69
2021/11/01 02:57:33;;;;;;;34.33;24.32;;;;;;;4.13;68.24;101138.37;1856414;75;20932;-69
2021/11/01 03:00:01;;;;;;;36.75;25.70;;;;;;;4.10;68.18;101136.94;1856536;75;20967;-68
2021/11/01 03:02:28;;;;;;;37.00;25.00;;;;;;;4.07;68.15;101137.84;1849336;75;20986;-68
2021/11/01 03:04:54;;;;;;;33.15;24.70;;;;;;;4.05;68.11;101138.54;1854217;75;21007;-69
2021/11/01 03:07:22;;;;;;;37.30;25.20;;;;;;;4.03;68.11;101140.59;1838834;75;21110;-69
2021/11/01 03:09:49;;;;;;;36.00;25.48;;;;;;;4.00;68.08;101133.35;1856494;75;20924;-68
2021/11/01 03:12:17;;;;;;;34.55;24.27;;;;;;;3.99;68.08;101128.28;1823241;75;21611;-68
2021/11/01 03:14:52;;;;;;;36.15;26.60;;;;;;;3.96;68.06;101128.16;1848981;75;21007;-69
2021/11/01 03:17:22;;;;;;;36.25;24.95;;;;;;;3.94;68.04;101128.86;1851587;75;21038;-69
2021/11/01 03:19:56;;;;;;;35.43;25.60;;;;;;;3.97;67.92;101132.43;1857053;75;21855;-70
2021/11/01 03:22:22;;;;;;;34.18;24.80;;;;;;;3.95;67.89;101127.06;1851604;77;20920;-68
2021/11/01 03:24:54;;;;;;;36.58;25.92;;;;;;;3.93;67.89;101124.59;1857671;77;21027;-69
2021/11/01 03:27:23;;;;;;;34.85;25.20;;;;;;;3.89;67.89;101133.94;1825455;77;20975;-68
2021/11/01 03:29:49;;;;;;;34.80;25.55;;;;;;;3.89;67.90;101130.48;1849133;77;20936;-69
2021/11/01 03:32:16;;;;;;;33.25;24.15;;;;;;;3.88;67.89;101133.64;1822260;77;21202;-68
2021/11/01 03:34:44;;;;;;;32.83;24.98;;;;;;;3.87;67.85;101125.90;1823476;77;21382;-69
2021/11/01 03:37:15;;;;;;;33.88;25.25;;;;;;;3.87;67.88;101129.86;1846633;77;20999;-69
2021/11/01 03:39:42;;;;;;;36.10;26.35;;;;;;;3.87;67.92;101132.50;1850601;77;21042;-69
2021/11/01 03:42:11;;;;;;;35.50;26.10;;;;;;;3.87;67.93;101123.26;1823554;77;21120;-69
2021/11/01 03:44:43;;;;;;;33.20;24.92;;;;;;;3.86;67.95;101116.35;1826590;76;21107;-69
2021/11/01 03:47:07;;;;;;;31.77;23.75;;;;;;;3.86;67.95;101129.05;1823692;78;21039;-69
2021/11/01 03:49:39;;;;;;;36.23;25.82;;;;;;;3.85;67.91;101116.02;1812134;77;21092;-69
2021/11/01 03:54:32;;;;;;;33.90;24.00;;;;;;;3.80;67.84;101114.50;1828123;78;21422;-68
2021/11/01 03:56:58;;;;;;;32.15;24.15;;;;;;;3.78;67.82;101108.08;1809818;77;21091;-68
2021/11/01 03:59:27;;;;;;;33.90;24.52;;;;;;;3.75;67.78;101107.15;1833146;75;21091;-68
2021/11/01 04:01:54;;;;;;;33.70;24.60;;;;;;;3.72;67.85;101108.89;1832748;75;20988;-68
2021/11/01 04:04:21;;;;;;;31.25;23.05;;;;;;;3.71;67.91;101112.53;1844244;75;21011;-69
2021/11/01 04:06:47;;;;;;;31.02;23.22;;;;;;;3.67;67.92;101106.83;1844105;75;21062;-69
2021/11/01 04:09:16;;;;;;;35.52;25.27;;;;;;;3.66;67.91;101101.75;1855484;77;21467;-69
2021/11/01 04:11:44;;;;;;;34.67;24.57;;;;;;;3.64;67.94;101103.77;1856331;75;20916;-68
2021/11/01 04:14:18;;;;;;;35.60;25.60;;;;;;;3.63;67.95;101099.50;1856410;77;20927;-68
2021/11/01 04:16:49;;;;;;;35.52;25.30;;;;;;;3.61;68.01;101100.20;1856200;75;21443;-68
2021/11/01 04:21:43;;;;;;;33.02;24.70;;;;;;;3.60;68.09;101088.02;1857569;77;21075;-68
2021/11/01 04:24:11;;;;;;;35.78;26.35;;;;;;;3.58;68.13;101092.67;1842106;75;20983;-68
2021/11/01 04:26:38;;;;;;;36.85;25.32;;;;;;;3.58;68.19;101086.06;1857512;77;21030;-68
2021/11/01 04:29:07;;;;;;;34.10;25.45;;;;;;;3.57;68.23;101089.72;1854038;75;21117;-69
2021/11/01 04:31:37;;;;;;;38.88;26.37;;;;;;;3.58;68.29;101092.67;1855720;77;21042;-69
2021/11/01 04:34:49;;;;;;;33.63;26.57;;;;;;;3.59;68.35;101087.71;1856264;75;21123;-68
2021/11/01 04:36:37;;;;;;;36.63;26.90;;;;;;;3.62;68.43;101085.48;1778493;77;20991;-68
2021/11/01 04:39:11;;;;;;;37.80;26.45;;;;;;;3.64;68.48;101083.95;1816396;78;21439;-69
2021/11/01 04:41:43;;;;;;;37.35;27.48;;;;;;;3.66;68.51;101091.19;1807063;76;21073;-68
2021/11/01 04:44:21;;;;;;;40.80;27.42;;;;;;;3.67;68.58;101086.20;1833335;76;21014;-69
2021/11/01 04:54:53;;;;;;;39.55;27.85;;;;;;;3.73;68.72;101090.70;1807072;76;21030;-69
2021/11/01 04:57:20;;;;;;;40.43;29.20;;;;;;;3.74;68.76;101083.07;1832180;76;21620;-69
2021/11/01 04:59:48;;;;;;;39.42;28.15;;;;;;;3.73;68.85;101091.50;1800993;78;21877;-69
2021/11/01 05:02:15;;;;;;;38.40;26.80;;;;;;;3.74;68.90;101084.39;1833600;76;21627;-69
2021/11/01 05:04:44;;;;;;;39.95;28.05;;;;;;;3.75;68.91;101089.97;1832946;76;20954;-69
2021/11/01 05:07:12;;;;;;;42.50;29.20;;;;;;;3.77;68.98;101097.20;1832659;76;21073;-69
2021/11/01 05:09:59;;;;;;;38.45;28.42;;;;;;;3.78;69.02;101093.55;1831623;76;21043;-69
2021/11/01 05:12:29;;;;;;;39.55;27.45;;;;;;;3.83;69.05;101096.92;1833897;76;21152;-69
2021/11/01 05:15:04;;;;;;;39.85;27.30;;;;;;;3.86;69.06;101089.41;1830262;76;21061;-68
2021/11/01 05:17:43;;;;;;;41.33;27.50;;;;;;;3.87;69.06;101096.32;1828628;76;21046;-71
2021/11/01 05:20:32;;;;;;;39.83;28.57;;;;;;;3.87;69.08;101093.67;1819231;76;21461;-70
2021/11/01 05:25:26;;;;;;;38.17;28.80;;;;;;;3.84;69.19;101084.82;1855295;75;22308;-68
2021/11/01 05:30:42;;;;;;;36.85;27.20;;;;;;;3.86;69.39;101081.48;1856014;75;20987;-70
2021/11/01 05:33:32;;;;;;;38.90;29.63;;;;;;;3.90;69.48;101084.03;1853604;76;21113;-69
2021/11/01 05:35:35;;;;;;;42.27;30.70;;;;;;;3.94;69.60;101089.22;1850999;75;21003;-69
2021/11/01 05:38:01;;;;;;;40.50;29.72;;;;;;;4.04;69.72;101093.31;1805155;78;21545;-69
2021/11/01 05:40:28;;;;;;;42.17;31.02;;;;;;;4.14;69.74;101090.58;1800682;78;21039;-69
2021/11/01 05:42:55;;;;;;;40.58;29.65;;;;;;;4.21;69.74;101088.78;1832951;76;21026;-69
2021/11/01 05:45:22;;;;;;;39.00;29.27;;;;;;;4.29;69.76;101094.88;1832772;76;21031;-69
2021/11/01 05:47:56;;;;;;;38.00;29.42;;;;;;;4.33;69.73;101095.59;1857616;77;20935;-68
2021/11/01 05:50:17;;;;;;;42.40;31.10;;;;;;;4.38;69.78;101090.52;1803442;78;21158;-68
2021/11/01 05:52:45;;;;;;;39.40;29.87;;;;;;;4.41;69.86;101091.44;1816553;76;21445;-69
2021/11/01 06:03:19;;;;;;;41.95;32.10;;;;;;;4.64;70.18;101102.09;1835656;76;21135;-68
2021/11/01 06:08:29;;;;;;;44.15;32.93;;;;;;;4.70;70.49;101102.13;1833258;76;21069;-69
2021/11/01 06:13:24;;;;;;;47.33;34.35;;;;;;;4.73;70.65;101102.20;1812337;76;20966;-69
2021/11/01 06:13:29;;;;;;;43.70;32.10;;;;;;;4.81;70.80;101107.81;1830658;76;20994;-69
2021/11/01 06:15:59;;;;;;;43.13;31.95;;;;;;;4.90;70.79;101100.78;1836770;76;21118;-69
2021/11/01 06:18:35;;;;;;;50.03;36.93;;;;;;;4.94;70.85;101097.20;1835024;76;21042;-69
2021/11/01 06:21:06;;;;;;;47.67;37.45;;;;;;;4.96;70.98;101101.77;1807654;78;21118;-69
2021/11/01 06:23:35;;;;;;;47.60;36.05;;;;;;;5.03;71.06;101094.63;1803960;79;21077;-69
2021/11/01 06:26:02;;;;;;;42.40;33.35;;;;;;;5.08;71.11;101096.15;1834380;76;21068;-69
2021/11/01 06:28:29;;;;;;;44.67;32.98;;;;;;;5.18;71.21;101095.20;1836787;78;21135;-69
2021/11/01 06:30:59;;;;;;;49.70;35.52;;;;;;;5.30;71.21;101085.31;1827968;76;21029;-69
2021/11/01 06:41:42;;;;;;;45.43;31.65;;;;;;;5.77;71.21;101081.42;1835256;76;21885;-70
2021/11/01 07:16:46;;;;;;;43.35;33.83;;;;;;;7.36;70.70;101079.28;1835307;76;21559;-70
2021/11/01 07:19:20;;;;;;;44.23;35.98;;;;;;;7.55;70.60;101085.40;1834153;76;21049;-69
2021/11/01 08:24:45;;;;;;;55.25;39.35;;;;;;;10.90;64.81;101020.30;1806658;77;21031;-71
2021/11/01 09:07:23;;;;;;;47.78;36.60;;;;;;;12.54;59.11;100971.81;1834806;76;20961;-70
2021/11/01 09:10:08;;;;;;;47.05;34.53;;;;;;;12.62;58.82;100965.95;1833804;77;21112;-70
2021/11/01 09:36:37;;;;;;;39.40;30.17;;;;;;;13.34;57.06;100929.49;1815810;79;21534;-70
2021/11/01 09:39:18;;;;;;;37.75;28.70;;;;;;;13.49;56.71;100921.98;1837405;77;21753;-69
2021/11/01 09:41:32;;;;;;;35.67;28.47;;;;;;;13.66;56.63;100921.20;1804476;78;20968;-69
2021/11/01 09:44:05;;;;;;;37.23;30.47;;;;;;;13.88;56.03;100916.08;1823667;75;21280;-70
2021/11/01 09:46:31;;;;;;;33.50;27.00;;;;;;;13.92;55.66;100919.83;1819946;78;21166;-69
2021/11/01 09:49:31;;;;;;;36.03;28.53;;;;;;;13.99;55.50;100905.61;1834842;77;21066;-69
2021/11/01 09:51:34;;;;;;;35.17;27.30;;;;;;;14.04;55.21;100912.30;1837347;76;21288;-69
2021/11/01 09:54:01;;;;;;;33.00;27.87;;;;;;;14.05;55.01;100906.67;1856353;75;21210;-69
2021/11/01 09:56:56;;;;;;;30.83;24.87;;;;;;;14.05;55.05;100903.99;1833527;76;21081;-70
2021/11/01 09:59:15;;;;;;;33.63;27.17;;;;;;;14.10;54.92;100901.82;1821791;77;21101;-69
2021/11/01 10:01:48;;;;;;;32.40;27.00;;;;;;;14.16;54.60;100894.56;1820445;77;21226;-69
2021/11/01 10:04:25;;;;;;;36.80;29.50;;;;;;;14.17;54.56;100894.82;1823375;77;21220;-70
2021/11/01 10:07:18;;;;;;;33.13;28.33;;;;;;;14.18;54.52;100890.53;1824028;78;21705;-70
2021/11/01 10:09:29;;;;;;;32.90;27.70;;;;;;;14.23;54.41;100889.16;1819122;77;21063;-70
2021/11/01 10:11:58;;;;;;;34.47;28.23;;;;;;;14.34;54.44;100889.13;1824462;77;21214;-70
2021/11/01 10:14:26;;;;;;;32.63;27.17;;;;;;;14.39;53.75;100880.52;1850495;75;21203;-70
2021/11/01 10:19:41;;;;;;;31.40;26.50;;;;;;;14.35;52.95;100867.37;1857784;77;21664;-70
2021/11/01 10:22:17;;;;;;;35.20;28.70;;;;;;;14.33;53.27;100874.09;1841934;76;21236;-70
2021/11/01 10:24:41;;;;;;;33.67;27.33;;;;;;;14.37;53.10;100875.15;1819957;78;21757;-70
2021/11/01 10:27:16;;;;;;;33.20;27.17;;;;;;;14.40;52.94;100870.57;1829113;76;21183;-70
2021/11/01 10:29:54;;;;;;;32.13;27.07;;;;;;;14.43;53.16;100870.83;1806514;76;21310;-70
2021/11/01 10:32:36;;;;;;;35.50;26.10;;;;;;;14.44;52.86;100867.05;1804242;79;21233;-71
2021/11/01 10:35:30;;;;;;;33.53;26.23;;;;;;;14.41;52.77;100868.97;1821924;77;22514;-71
2021/11/01 10:38:26;;;;;;;32.10;25.63;;;;;;;14.45;52.97;100865.19;1794468;77;20956;-70
2021/11/01 11:11:39;;;;;;;27.17;21.20;;;;;;;15.03;52.14;100828.32;1832078;76;21308;-70
2021/11/01 11:14:11;;;;;;;29.53;24.47;;;;;;;15.16;52.03;100832.52;1834529;77;21362;-70
2021/11/01 11:27:54;;;;;;;27.97;22.73;;;;;;;15.35;50.82;100802.24;1857333;75;21309;-70
2021/11/01 11:41:06;;;;;;;21.90;18.97;;;;;;;15.27;50.59;100793.42;1829197;76;21933;-69
2021/11/01 11:47:00;;;;;;;24.57;18.83;;;;;;;15.29;50.86;100789.37;1823298;75;21825;-69
2021/11/01 11:49:16;;;;;;;23.77;18.30;;;;;;;15.35;50.63;100785.55;1854813;75;21394;-70
2021/11/01 11:52:02;;;;;;;21.65;18.23;;;;;;;15.39;49.93;100785.78;1804159;78;21046;-68
2021/11/01 11:54:43;;;;;;;22.77;19.07;;;;;;;15.33;50.13;100785.02;1829746;77;21019;-70
2021/11/01 11:57:33;;;;;;;23.95;20.10;;;;;;;15.34;50.26;100787.98;1832104;77;21229;-70
2021/11/01 12:00:04;;;;;;;21.60;18.63;;;;;;;15.42;50.24;100774.45;1796501;77;20959;-69
2021/11/01 12:02:41;;;;;;;;;;;;;;;15.49;50.12;100767.64;1841127;75;21447;-70
2021/11/01 12:05:28;;;;;;;23.87;19.20;;;;;;;15.55;49.76;100768.40;1842875;75;20194;-69
2021/11/01 12:08:19;;;;;;;23.87;19.57;;;;;;;15.51;49.45;100761.19;1801231;77;21459;-70
2021/11/01 12:18:58;;;;;;;22.60;17.77;;;;;;;15.35;50.01;100758.63;1817439;78;21723;-69
2021/11/01 12:21:24;;;;;;;24.53;20.63;;;;;;;15.43;49.62;100748.61;1822017;77;21382;-69
2021/11/01 12:23:52;;;;;;;20.53;17.53;;;;;;;15.38;49.42;100749.20;1849366;77;21417;-69
2021/11/01 12:26:24;;;;;;;24.67;20.13;;;;;;;15.38;49.42;100749.20;1810238;77;21344;-69
2021/11/01 12:28:55;;;;;;;23.20;20.57;;;;;;;15.34;49.44;100746.27;1822053;77;21893;-69
2021/11/01 12:31:23;;;;;;;25.27;20.23;;;;;;;15.35;49.63;100749.77;1814848;77;22799;-69
2021/11/01 12:34:15;;;;;;;25.33;20.67;;;;;;;15.32;49.79;100744.95;1844020;75;21537;-69
2021/11/01 12:36:28;;;;;;;25.02;20.23;;;;;;;15.32;49.79;100744.95;1812212;77;21346;-69
2021/11/01 12:39:08;;;;;;;;;;;;;;;15.27;49.84;100743.63;1835649;75;21030;-69
2021/11/01 12:47:19;;;;;;;26.77;20.70;;;;;;;15.24;49.90;100744.48;1811992;77;21280;-74
2021/11/01 12:57:36;;;;;;;26.57;21.07;;;;;;;15.13;50.20;100742.95;1818341;77;21493;-69
2021/11/01 13:00:06;;;;;;;26.83;22.33;;;;;;;15.15;50.19;100746.17;1818128;77;21497;-70
2021/11/01 13:02:38;;;;;;;27.00;21.27;;;;;;;15.15;50.16;100746.17;1818945;77;21438;-70
2021/11/01 13:05:08;;;;;;;27.27;21.43;;;;;;;15.11;50.19;100745.14;1815692;77;21302;-69
2021/11/01 13:10:20;;;;;;;22.27;19.67;;;;;;;14.98;50.38;100735.83;1791719;78;21356;-68
2021/11/01 13:13:12;;;;;;;25.80;21.07;;;;;;;14.90;50.49;100736.41;1822620;77;21867;-69
2021/11/01 13:18:21;;;;;;;26.17;20.97;;;;;;;14.84;50.57;100724.63;1823365;77;21323;-70
2021/11/01 13:21:02;;;;;;;25.00;18.90;;;;;;;14.81;50.95;100721.98;1820064;77;21403;-70
2021/11/01 13:23:35;;;;;;;27.53;20.53;;;;;;;14.71;51.09;100716.69;1824561;77;21328;-71
2021/11/01 13:26:15;;;;;;;23.97;19.57;;;;;;;14.63;51.31;100719.96;1824131;78;21722;-70
2021/11/01 13:29:27;;;;;;;24.60;20.03;;;;;;;14.61;51.49;100719.42;1823779;77;21149;-70
2021/11/01 13:37:21;;;;;;;23.65;18.65;;;;;;;14.41;52.03;100717.64;1823363;77;21274;-70
2021/11/01 13:39:44;;;;;;;26.60;22.27;;;;;;;14.34;52.08;100715.27;1823942;77;21469;-69
2021/11/01 13:42:16;;;;;;;27.30;22.33;;;;;;;14.18;52.29;100718.61;1801488;78;21798;-70
2021/11/01 13:44:44;;;;;;;28.00;21.97;;;;;;;14.08;52.54;100713.26;1808159;77;21340;-68
2021/11/01 13:47:15;;;;;;;27.73;21.73;;;;;;;13.91;52.82;100710.12;1823463;77;21115;-68
2021/11/01 13:49:39;;;;;;;27.53;22.17;;;;;;;13.76;53.11;100721.20;1825098;78;21220;-70
2021/11/01 13:55:05;;;;;;;25.93;21.27;;;;;;;13.49;53.72;100724.23;1818117;77;21608;-69
2021/11/01 13:57:31;;;;;;;28.20;22.03;;;;;;;13.31;54.16;100725.59;1822918;78;21307;-69
2021/11/01 14:00:14;;;;;;;25.17;22.03;;;;;;;13.13;54.68;100724.80;1818516;77;21775;-70
2021/11/01 14:11:08;;;;;;;33.47;25.20;;;;;;;12.47;56.81;100728.76;1833291;76;21356;-69
2021/11/01 14:30:00;;;;;;;26.00;21.50;;;;;;;11.71;59.34;100715.35;1790767;80;20966;-70
2021/11/01 15:07:41;;;;;;;27.60;21.33;;;;;;;10.52;62.86;100715.56;1815694;76;21418;-70
2021/11/01 15:17:52;;;;;;;31.82;22.27;;;;;;;10.24;63.64;100712.59;1833903;78;20995;-69
2021/11/01 15:20:31;;;;;;;27.48;21.73;;;;;;;10.21;63.92;100714.95;1811668;76;21150;-71
2021/11/01 15:23:04;;;;;;;30.52;22.67;;;;;;;10.16;64.13;100720.23;1830147;76;21084;-69
2021/11/01 15:25:58;;;;;;;30.85;23.57;;;;;;;10.10;64.37;100718.02;1830931;76;21038;-70
2021/11/01 16:17:57;;;;;;;30.82;24.05;;;;;;;9.79;66.97;100728.86;1709361;82;21553;-70
2021/11/01 16:20:11;;;;;;;32.25;23.05;;;;;;;9.77;66.91;100725.13;1704007;82;21124;-69
2021/11/01 16:22:41;;;;;;;31.82;24.23;;;;;;;9.79;66.85;100722.19;1709136;82;21038;-70
2021/11/01 16:25:08;;;;;;;33.90;24.80;;;;;;;9.77;66.84;100725.13;1709227;82;21607;-70
2021/11/01 16:27:44;;;;;;;38.92;28.57;;;;;;;9.77;66.90;100725.63;1713735;83;21983;-70
2021/11/01 16:30:15;;;;;;;43.45;29.30;;;;;;;9.77;67.09;100732.30;1706772;82;21131;-69
2021/11/01 16:32:42;;;;;;;35.98;26.82;;;;;;;9.80;67.22;100727.80;1728268;83;21090;-70
2021/11/01 16:35:08;;;;;;;40.10;31.65;;;;;;;9.85;67.31;100727.34;1736559;81;21112;-69
2021/11/01 16:40:11;;;;;;;45.52;33.08;;;;;;;9.99;67.30;100738.45;1741763;82;21894;-69
2021/11/01 16:42:40;;;;;;;47.23;33.85;;;;;;;10.07;67.28;100739.36;1740972;81;21109;-69
2021/11/01 16:45:16;;;;;;;45.10;33.38;;;;;;;10.16;67.19;100732.23;1741316;81;21065;-68
2021/11/01 16:47:45;;;;;;;45.70;32.65;;;;;;;10.21;67.07;100729.11;1741743;81;20979;-69
2021/11/01 16:50:16;;;;;;;44.93;33.10;;;;;;;10.30;66.94;100737.52;1741418;81;20963;-69
2021/11/01 16:52:46;;;;;;;45.48;33.42;;;;;;;10.35;66.85;100732.22;1727502;81;21144;-69
2021/11/01 16:55:17;;;;;;;42.55;32.08;;;;;;;10.42;66.71;100734.16;1709050;82;20958;-70
2021/11/01 16:57:47;;;;;;;44.08;33.15;;;;;;;10.47;66.54;100730.75;1709081;82;21055;-70
2021/11/01 17:22:27;;;;;;;41.40;29.87;;;;;;;10.56;65.42;100693.99;1707813;82;21002;-70
2021/11/01 17:24:56;;;;;;;40.73;30.92;;;;;;;10.54;65.39;100694.77;1708698;84;21064;-68
2021/11/01 17:36:18;;;;;;;39.75;29.40;;;;;;;10.47;65.49;100685.35;1708660;82;21046;-69
2021/11/01 18:41:46;;;;;;;41.50;29.45;;;;;;;9.87;65.12;100653.72;1718665;81;21129;-70
2021/11/01 18:52:29;;;;;;;40.65;30.62;;;;;;;9.52;65.43;100640.25;1739208;81;21268;-72
2021/11/01 18:54:56;;;;;;;41.75;30.25;;;;;;;9.43;65.56;100645.73;1745003;81;20978;-70
2021/11/01 18:57:24;;;;;;;38.48;28.52;;;;;;;9.35;65.74;100641.64;1722542;83;22334;-70
2021/11/01 18:59:51;;;;;;;43.48;30.12;;;;;;;9.31;65.85;100643.69;1735705;81;21102;-69
2021/11/01 19:02:39;;;;;;;40.73;29.67;;;;;;;9.27;65.96;100644.71;1744587;81;21044;-70
2021/11/01 19:05:14;;;;;;;43.83;31.40;;;;;;;9.25;66.04;100636.17;1737958;81;21151;-69
2021/11/01 19:07:58;;;;;;;42.50;30.08;;;;;;;9.23;66.18;100633.47;1724187;81;21568;-69
2021/11/01 19:11:24;;;;;;;42.67;29.87;;;;;;;9.21;66.25;100627.56;1738115;81;21623;-71
2021/11/01 20:05:37;;;;;;;47.67;36.05;;;;;;;9.06;66.94;100606.33;1693460;84;21060;-71
2021/11/01 20:08:19;;;;;;;48.63;34.53;;;;;;;9.01;67.08;100596.12;1724967;81;21619;-68
2021/11/01 20:11:06;;;;;;;51.30;37.17;;;;;;;9.00;67.21;100597.17;1710096;82;21071;-74
2021/11/01 21:25:23;;;;;;;56.00;39.38;;;;;;;8.28;68.08;100548.67;1684659;82;21074;-70
2021/11/01 21:27:50;;;;;;;62.38;43.63;;;;;;;8.25;68.20;100550.48;1707625;82;22646;-71
2021/11/01 21:30:18;;;;;;;68.70;44.70;;;;;;;8.25;68.29;100545.95;1708508;82;21026;-70
2021/11/01 21:32:44;;;;;;;58.20;40.20;;;;;;;8.26;68.31;100549.42;1718842;82;21099;-70
2021/11/01 21:35:15;;;;;;;63.90;45.33;;;;;;;8.26;68.35;100540.11;1707230;82;21014;-71
2021/11/01 21:37:41;;;;;;;64.10;44.60;;;;;;;8.22;68.35;100543.25;1707630;82;21310;-71
2021/11/01 21:40:11;;;;;;;62.80;44.00;;;;;;;8.22;68.37;100547.24;1707618;84;21070;-71
2021/11/01 21:42:37;;;;;;;59.55;42.10;;;;;;;8.20;68.41;100538.72;1719925;82;21019;-71
2021/11/01 21:45:05;;;;;;;63.08;43.58;;;;;;;8.19;68.46;100541.10;1677546;84;21149;-71
2021/11/01 21:47:35;;;;;;;59.08;40.55;;;;;;;8.19;68.49;100548.25;1707367;82;21045;-71
2021/11/01 21:50:04;;;;;;;58.70;40.70;;;;;;;8.20;68.53;100544.03;1707435;82;21057;-71
2021/11/01 21:52:30;;;;;;;58.35;40.03;;;;;;;8.22;68.52;100535.80;1710846;82;21649;-71
2021/11/01 21:54:58;;;;;;;59.35;41.50;;;;;;;8.25;68.51;100542.50;1727475;82;21070;-71
2021/11/01 21:57:38;;;;;;;62.45;43.60;;;;;;;8.22;68.53;100528.62;1707010;82;21846;-71
2021/11/01 22:21:22;;;;;;;;;;;;;;;8.26;68.56;100514.33;1709792;82;21587;-70
2021/11/01 22:24:07;;;;;;;55.38;38.38;;;;;;;8.30;68.52;100513.32;1731608;81;21140;-69
2021/11/01 22:34:34;;;;;;;52.55;39.03;;;;;;;8.34;68.33;100500.61;1707463;83;22273;-70
2021/11/01 22:39:59;;;;;;;62.95;42.23;;;;;;;8.38;68.31;100496.43;1713327;82;21012;-70
2021/11/01 22:45:00;;;;;;;59.83;42.13;;;;;;;8.36;68.39;100494.53;1707124;82;21010;-70